Time;durP1;ratioP1;P1;durP2;ratioP2;P2;SDS_P1;SDS_P2;PMS_P1;PMS_P2;Temp;Humidity;BMP_temperature;BMP_pressure;BME280_temperature;BME280_humidity;BME280_pressure;Samples;Min_cycle;Max_cycle;Signal;HPM_P1;HPM_P2
2022/05/06 00:02:19;;;;;;;5.80;3.13;;;14.30;98.40;;;;;;5050462;28;21126;-69
2022/05/06 00:04:46;;;;;;;3.97;3.27;;;14.20;98.50;;;;;;5047825;28;20281;-69
2022/05/06 00:07:13;;;;;;;5.80;3.03;;;14.30;98.60;;;;;;5047646;28;20215;-69
2022/05/06 00:09:40;;;;;;;7.13;3.80;;;14.20;98.60;;;;;;5059942;28;20203;-69
2022/05/06 00:12:09;;;;;;;7.33;3.40;;;14.20;98.80;;;;;;5066993;28;20428;-69
2022/05/06 00:14:37;;;;;;;5.50;3.20;;;14.20;99.10;;;;;;5066936;28;20207;-69
2022/05/06 00:17:04;;;;;;;4.23;3.20;;;14.10;99.20;;;;;;5047802;28;20204;-69
2022/05/06 00:19:31;;;;;;;6.93;3.80;;;14.10;99.30;;;;;;5047438;28;20262;-69
2022/05/06 00:21:58;;;;;;;5.30;3.20;;;14.10;99.30;;;;;;5047557;28;20283;-69
2022/05/06 00:24:25;;;;;;;4.73;3.70;;;14.00;99.40;;;;;;5059650;28;20208;-68
2022/05/06 00:26:51;;;;;;;3.57;3.27;;;13.90;99.90;;;;;;5047567;28;20208;-68
2022/05/06 00:29:18;;;;;;;3.47;3.17;;;14.00;99.90;;;;;;5047626;28;20208;-68
2022/05/06 00:31:46;;;;;;;4.37;3.50;;;13.90;99.90;;;;;;5047633;28;20218;-68
2022/05/06 00:34:12;;;;;;;5.20;3.90;;;13.90;99.90;;;;;;5047388;28;20725;-68
2022/05/06 00:36:39;;;;;;;5.07;3.20;;;13.80;99.90;;;;;;5047537;28;20216;-69
2022/05/06 00:39:06;;;;;;;5.87;3.87;;;13.80;99.90;;;;;;5047407;28;20208;-68
2022/05/06 00:41:34;;;;;;;6.60;3.43;;;13.60;99.90;;;;;;5065863;28;20241;-68
2022/05/06 00:44:01;;;;;;;4.83;3.60;;;13.60;99.90;;;;;;5067696;28;20207;-69
2022/05/06 00:46:28;;;;;;;6.23;3.60;;;13.50;99.90;;;;;;5067654;28;20547;-68
2022/05/06 00:48:56;;;;;;;4.37;3.27;;;13.50;99.90;;;;;;5067609;28;20210;-68
2022/05/06 00:51:26;;;;;;;5.43;3.40;;;13.50;99.90;;;;;;5060786;28;20731;-68
2022/05/06 00:53:56;;;;;;;6.50;3.50;;;13.40;99.90;;;;;;5067286;28;20256;-68
2022/05/06 00:56:26;;;;;;;3.60;3.13;;;13.40;99.90;;;;;;5066986;28;20257;-68
2022/05/06 00:58:53;;;;;;;4.50;3.33;;;13.50;99.90;;;;;;5059985;28;20270;-68
2022/05/06 01:01:21;;;;;;;4.13;3.20;;;13.40;99.90;;;;;;5047174;28;20208;-68
2022/05/06 01:03:48;;;;;;;4.57;3.60;;;13.40;99.90;;;;;;5047322;28;20570;-68
2022/05/06 01:06:22;;;;;;;6.33;3.40;;;13.40;99.90;;;;;;5065420;28;20223;-68
2022/05/06 01:08:49;;;;;;;4.07;3.00;;;13.40;99.90;;;;;;5067009;28;20205;-68
2022/05/06 01:11:38;;;;;;;3.43;3.10;;;13.50;99.90;;;;;;5067060;28;20204;-68
2022/05/06 01:14:04;;;;;;;5.97;3.60;;;13.50;99.90;;;;;;5061811;28;20218;-68
2022/05/06 01:16:34;;;;;;;3.83;3.47;;;13.50;99.90;;;;;;5046616;28;20208;-68
2022/05/06 01:19:01;;;;;;;5.03;3.43;;;13.50;99.90;;;;;;5047372;28;20295;-68
2022/05/06 01:21:34;;;;;;;4.20;3.50;;;13.50;99.90;;;;;;5055192;28;20216;-68
2022/05/06 01:24:02;;;;;;;3.57;3.10;;;13.50;99.90;;;;;;5066275;28;20301;-68
2022/05/06 01:26:52;;;;;;;4.73;3.50;;;13.50;99.90;;;;;;5071037;28;20269;-68
2022/05/06 01:29:20;;;;;;;4.27;3.27;;;13.40;99.90;;;;;;5070575;28;20215;-68
2022/05/06 01:31:47;;;;;;;3.40;3.10;;;13.40;99.90;;;;;;5070604;28;20666;-68
2022/05/06 01:34:16;;;;;;;3.40;3.10;;;13.40;99.90;;;;;;5070364;28;20215;-68
2022/05/06 01:36:43;;;;;;;4.37;3.30;;;13.20;99.90;;;;;;5070378;28;20196;-67
2022/05/06 01:39:15;;;;;;;3.73;3.33;;;13.10;99.90;;;;;;5070773;28;20268;-69
2022/05/06 01:41:44;;;;;;;3.50;3.20;;;13.00;99.90;;;;;;5070409;28;20238;-68
2022/05/06 01:44:13;;;;;;;6.17;3.50;;;12.90;99.90;;;;;;5070418;28;20263;-70
2022/05/06 01:46:40;;;;;;;4.13;3.40;;;12.90;99.90;;;;;;5067740;28;20299;-70
2022/05/06 01:49:08;;;;;;;3.73;3.10;;;12.80;99.90;;;;;;5050743;28;20208;-70
2022/05/06 01:51:36;;;;;;;4.67;3.43;;;12.80;99.90;;;;;;5050092;28;20883;-70
2022/05/06 01:54:03;;;;;;;5.73;3.40;;;12.80;99.90;;;;;;5063083;28;20741;-68
2022/05/06 01:56:34;;;;;;;5.40;3.53;;;12.80;99.90;;;;;;5070177;28;20287;-67
2022/05/06 01:59:01;;;;;;;4.33;3.80;;;12.70;99.90;;;;;;5070462;28;20214;-67
2022/05/06 02:01:33;;;;;;;4.67;3.80;;;12.70;99.90;;;;;;5066825;28;20207;-67
2022/05/06 02:06:44;;;;;;;5.17;3.20;;;12.60;99.90;;;;;;5070183;28;20965;-69
2022/05/06 02:09:10;;;;;;;3.87;3.17;;;12.50;99.90;;;;;;5069949;28;20265;-69
2022/05/06 02:11:39;;;;;;;5.23;3.90;;;12.40;99.90;;;;;;5068663;28;20207;-68
2022/05/06 02:14:05;;;;;;;6.67;3.93;;;12.30;99.90;;;;;;5050242;28;20244;-68
2022/05/06 02:16:32;;;;;;;3.93;3.37;;;12.30;99.90;;;;;;5061671;28;20253;-67
2022/05/06 02:18:59;;;;;;;4.97;3.73;;;12.30;99.90;;;;;;5069942;28;20203;-68
2022/05/06 02:21:41;;;;;;;4.40;3.37;;;12.20;99.90;;;;;;5069742;28;20239;-68
2022/05/06 02:24:08;;;;;;;4.97;3.23;;;12.20;99.90;;;;;;5069492;28;20238;-68
2022/05/06 02:26:34;;;;;;;4.47;3.03;;;12.20;99.90;;;;;;5069473;28;20231;-69
2022/05/06 02:29:02;;;;;;;4.63;3.20;;;12.20;99.90;;;;;;5068121;28;20207;-68
2022/05/06 02:34:16;;;;;;;4.97;3.67;;;12.10;99.90;;;;;;5047166;28;20200;-68
2022/05/06 02:36:44;;;;;;;5.60;3.20;;;12.10;99.90;;;;;;5052420;28;20207;-68
2022/05/06 02:39:11;;;;;;;5.23;3.17;;;12.00;99.90;;;;;;5067164;28;20215;-68
2022/05/06 02:41:37;;;;;;;4.83;3.23;;;12.00;99.90;;;;;;5066704;28;20235;-68
2022/05/06 02:44:06;;;;;;;3.90;3.07;;;12.00;99.90;;;;;;5065211;28;20239;-68
2022/05/06 02:46:33;;;;;;;3.83;3.43;;;12.00;99.90;;;;;;5066267;28;20207;-68
2022/05/06 02:49:00;;;;;;;5.07;3.60;;;12.00;99.90;;;;;;5047471;28;20208;-69
2022/05/06 02:51:28;;;;;;;4.73;3.13;;;11.90;99.90;;;;;;5050745;28;20237;-68
2022/05/06 02:53:55;;;;;;;4.73;3.37;;;11.90;99.90;;;;;;5067519;28;20241;-68
2022/05/06 02:56:34;;;;;;;5.20;3.40;;;11.90;99.90;;;;;;5067161;28;20268;-69
2022/05/06 02:59:00;;;;;;;3.80;3.40;;;11.90;99.90;;;;;;5066823;28;20272;-68
2022/05/06 03:01:29;;;;;;;7.23;3.60;;;11.90;99.90;;;;;;5061309;28;20571;-68
2022/05/06 03:03:56;;;;;;;3.30;3.03;;;11.90;99.90;;;;;;5066602;28;20239;-68
2022/05/06 03:06:31;;;;;;;5.20;3.37;;;11.90;99.90;;;;;;5066625;28;20265;-69
2022/05/06 03:08:58;;;;;;;3.57;3.27;;;11.90;99.90;;;;;;5066776;28;20219;-68
2022/05/06 03:11:24;;;;;;;3.97;3.40;;;11.80;99.90;;;;;;5050867;28;20265;-68
2022/05/06 03:13:51;;;;;;;5.60;3.33;;;11.80;99.90;;;;;;5059892;28;20211;-69
2022/05/06 03:16:28;;;;;;;3.67;3.30;;;11.70;99.90;;;;;;5067749;28;20207;-69
2022/05/06 03:18:55;;;;;;;4.53;3.40;;;11.60;99.90;;;;;;5067657;28;20245;-68
2022/05/06 03:21:21;;;;;;;3.77;3.40;;;11.60;99.90;;;;;;5065202;28;20208;-68
2022/05/06 03:23:51;;;;;;;7.33;3.67;;;11.60;99.90;;;;;;5060777;28;20713;-68
2022/05/06 03:26:25;;;;;;;4.43;3.23;;;11.60;99.90;;;;;;5068472;28;20211;-68
2022/05/06 03:28:52;;;;;;;3.77;3.40;;;11.60;99.90;;;;;;5068460;28;20545;-68
2022/05/06 03:31:19;;;;;;;3.80;3.40;;;11.60;99.90;;;;;;5068467;28;20215;-68
2022/05/06 03:33:49;;;;;;;3.87;3.47;;;11.60;99.90;;;;;;5068498;28;20415;-68
2022/05/06 03:36:22;;;;;;;4.00;3.70;;;11.60;99.90;;;;;;5068497;28;20207;-68
2022/05/06 03:38:49;;;;;;;6.20;3.30;;;11.50;99.90;;;;;;5062200;28;20220;-68
2022/05/06 03:41:26;;;;;;;4.17;3.57;;;11.50;99.90;;;;;;5064880;28;20238;-68
2022/05/06 03:43:53;;;;;;;5.60;3.33;;;11.50;99.90;;;;;;5048285;28;20326;-68
2022/05/06 03:46:28;;;;;;;3.83;3.40;;;11.50;99.90;;;;;;5047351;28;20208;-68
2022/05/06 03:48:57;;;;;;;6.30;3.83;;;11.30;99.90;;;;;;5048166;28;20199;-68
2022/05/06 03:51:24;;;;;;;4.10;3.70;;;11.30;99.90;;;;;;5048142;28;20204;-69
2022/05/06 03:53:51;;;;;;;3.90;3.50;;;11.30;99.90;;;;;;5053390;28;20662;-68
2022/05/06 03:56:23;;;;;;;3.43;3.13;;;11.30;99.90;;;;;;5067998;28;20206;-69
2022/05/06 03:58:50;;;;;;;3.77;2.93;;;11.30;99.90;;;;;;5068151;28;20203;-68
2022/05/06 04:01:23;;;;;;;6.10;3.50;;;11.40;99.90;;;;;;5067810;28;20243;-68
2022/05/06 04:03:50;;;;;;;4.40;3.27;;;11.40;99.90;;;;;;5067641;28;20300;-68
2022/05/06 04:06:28;;;;;;;4.57;3.20;;;11.40;99.90;;;;;;5067779;28;20223;-68
2022/05/06 04:08:54;;;;;;;3.83;3.00;;;11.40;99.90;;;;;;5066164;28;20207;-68
2022/05/06 04:11:24;;;;;;;5.47;3.47;;;11.40;99.90;;;;;;5047711;28;20218;-68
2022/05/06 04:13:50;;;;;;;6.87;3.33;;;11.40;99.90;;;;;;5047618;28;20208;-68
2022/05/06 04:16:24;;;;;;;4.63;3.60;;;11.30;99.90;;;;;;5047761;28;20236;-69
2022/05/06 04:18:51;;;;;;;5.73;3.80;;;11.30;99.90;;;;;;5047658;28;20242;-68
2022/05/06 04:24:06;;;;;;;5.30;3.90;;;11.30;99.90;;;;;;5062432;28;20231;-69
2022/05/06 04:26:34;;;;;;;3.70;3.30;;;11.40;99.90;;;;;;5067458;28;20199;-68
2022/05/06 04:29:01;;;;;;;3.77;3.47;;;11.40;99.90;;;;;;5067451;28;20616;-69
2022/05/06 04:31:27;;;;;;;5.77;3.70;;;11.40;99.90;;;;;;5067473;28;20203;-68
2022/05/06 04:33:54;;;;;;;3.20;3.03;;;11.50;99.90;;;;;;5067540;28;20257;-68
2022/05/06 04:36:21;;;;;;;3.67;3.30;;;11.50;99.90;;;;;;5055687;28;20212;-68
2022/05/06 04:38:47;;;;;;;7.17;4.13;;;11.50;99.90;;;;;;5047176;28;20266;-68
2022/05/06 04:41:29;;;;;;;7.83;3.97;;;11.50;99.90;;;;;;5048416;28;20301;-68
2022/05/06 04:43:56;;;;;;;8.47;3.87;;;11.60;99.90;;;;;;5067403;28;20231;-68
2022/05/06 04:46:22;;;;;;;4.30;3.90;;;11.60;99.90;;;;;;5067138;28;20665;-68
2022/05/06 04:48:49;;;;;;;5.67;3.90;;;11.60;99.90;;;;;;5067227;28;20924;-68
2022/05/06 04:51:28;;;;;;;5.87;4.80;;;11.50;99.90;;;;;;5067496;28;20276;-68
2022/05/06 04:53:55;;;;;;;5.50;4.43;;;11.40;99.90;;;;;;5067158;28;20216;-68
2022/05/06 04:56:25;;;;;;;5.30;4.10;;;11.30;99.90;;;;;;5067031;28;20203;-68
2022/05/06 04:58:53;;;;;;;6.10;4.07;;;11.30;99.90;;;;;;5071112;28;20211;-68
2022/05/06 05:01:27;;;;;;;5.10;4.60;;;11.30;99.90;;;;;;5071371;28;20246;-68
2022/05/06 05:03:59;;;;;;;4.67;4.23;;;11.30;99.90;;;;;;5071301;28;20227;-68
2022/05/06 05:06:26;;;;;;;5.03;4.53;;;11.40;99.90;;;;;;5070978;28;20661;-68
2022/05/06 05:08:52;;;;;;;9.07;5.40;;;11.40;99.90;;;;;;5071294;28;20207;-68
2022/05/06 05:11:29;;;;;;;8.53;4.73;;;11.50;99.90;;;;;;5066784;28;20224;-68
2022/05/06 05:13:58;;;;;;;4.73;4.13;;;11.40;99.90;;;;;;5071286;28;20210;-68
2022/05/06 05:16:28;;;;;;;5.87;4.30;;;11.50;99.90;;;;;;5071219;28;20476;-68
2022/05/06 05:18:55;;;;;;;5.57;4.10;;;11.60;99.90;;;;;;5070966;28;20211;-68
2022/05/06 05:21:24;;;;;;;4.00;3.70;;;11.70;99.90;;;;;;5070802;28;20215;-68
2022/05/06 05:23:51;;;;;;;5.00;3.93;;;11.80;99.90;;;;;;5070690;28;20239;-69
2022/05/06 05:26:28;;;;;;;5.40;3.87;;;11.80;99.90;;;;;;5071179;28;20207;-68
2022/05/06 05:28:55;;;;;;;5.03;3.70;;;11.90;99.90;;;;;;5070596;28;20631;-68
2022/05/06 05:31:43;;;;;;;5.30;3.80;;;11.90;99.90;;;;;;5064352;28;20212;-69
2022/05/06 05:34:10;;;;;;;4.07;3.70;;;11.90;99.90;;;;;;5050311;28;20211;-68
2022/05/06 05:36:36;;;;;;;5.00;3.90;;;11.90;99.90;;;;;;5050334;28;20682;-68
2022/05/06 05:39:03;;;;;;;9.73;3.90;;;12.00;99.90;;;;;;5050240;28;20663;-68
2022/05/06 05:41:31;;;;;;;4.70;3.63;;;12.00;99.90;;;;;;5053202;28;20308;-69
2022/05/06 05:49:33;;;;;;;4.60;3.93;;;12.20;99.90;;;;;;5043654;28;20235;-68
2022/05/06 05:51:59;;;;;;;4.23;3.87;;;12.30;99.90;;;;;;5070444;28;20199;-68
2022/05/06 05:54:28;;;;;;;4.23;3.80;;;12.40;99.90;;;;;;5069922;28;20207;-68
2022/05/06 05:56:55;;;;;;;4.87;3.70;;;12.50;99.90;;;;;;5070400;28;20294;-68
2022/05/06 05:59:22;;;;;;;6.83;4.00;;;12.60;99.90;;;;;;5070383;28;20207;-68
2022/05/06 06:01:50;;;;;;;7.23;3.83;;;12.60;99.90;;;;;;5062086;28;20313;-68
2022/05/06 06:04:17;;;;;;;7.43;4.00;;;12.60;99.90;;;;;;5070157;28;20243;-68
2022/05/06 06:06:44;;;;;;;4.20;3.80;;;12.70;99.90;;;;;;5070226;28;20219;-69
2022/05/06 06:09:11;;;;;;;4.50;3.70;;;12.80;99.90;;;;;;5069033;28;20211;-68
2022/05/06 06:11:37;;;;;;;4.80;3.30;;;12.90;99.90;;;;;;5070138;28;20265;-68
2022/05/06 06:14:05;;;;;;;6.33;3.50;;;12.90;99.90;;;;;;5070185;28;20242;-69
2022/05/06 06:16:31;;;;;;;5.83;3.67;;;13.00;99.90;;;;;;5069445;28;20677;-68
2022/05/06 06:19:01;;;;;;;7.47;4.00;;;13.00;99.90;;;;;;5070040;28;20211;-68
2022/05/06 06:21:29;;;;;;;6.37;3.60;;;13.10;99.90;;;;;;5065963;28;20208;-68
2022/05/06 06:23:55;;;;;;;5.53;3.90;;;13.00;99.90;;;;;;5063677;28;20231;-68
2022/05/06 06:26:31;;;;;;;5.07;3.97;;;12.90;99.90;;;;;;5069546;28;20277;-68
2022/05/06 06:28:57;;;;;;;5.83;4.03;;;12.80;99.90;;;;;;5067743;28;20211;-68
2022/05/06 06:31:30;;;;;;;5.97;3.27;;;12.80;99.90;;;;;;5069709;28;20208;-68
2022/05/06 06:33:58;;;;;;;13.00;3.70;;;12.90;99.90;;;;;;5069796;28;20249;-68
2022/05/06 06:36:28;;;;;;;11.90;5.97;;;12.90;99.90;;;;;;5069682;28;20688;-68
2022/05/06 06:38:55;;;;;;;5.17;3.50;;;12.90;99.90;;;;;;5069586;28;20203;-68
2022/05/06 06:41:28;;;;;;;6.70;3.33;;;13.00;99.90;;;;;;5068687;28;20239;-68
2022/05/06 06:43:55;;;;;;;4.03;3.60;;;13.10;99.90;;;;;;5069474;28;20235;-68
2022/05/06 06:46:32;;;;;;;3.77;3.13;;;13.10;99.90;;;;;;5069388;28;20272;-68
2022/05/06 06:49:00;;;;;;;4.57;3.40;;;13.20;99.90;;;;;;5069453;28;20204;-68
2022/05/06 06:51:27;;;;;;;4.47;2.83;;;13.20;99.90;;;;;;5068832;28;20250;-68
2022/05/06 06:53:54;;;;;;;4.50;3.00;;;13.30;99.90;;;;;;5068629;28;20629;-68
2022/05/06 06:56:24;;;;;;;4.27;2.90;;;13.40;99.90;;;;;;5068960;28;20361;-68
2022/05/06 06:58:51;;;;;;;5.70;3.07;;;13.40;99.90;;;;;;5069217;28;20231;-68
2022/05/06 07:01:27;;;;;;;3.10;2.80;;;13.50;99.90;;;;;;5068988;28;20200;-68
2022/05/06 07:03:53;;;;;;;5.50;3.63;;;13.60;99.90;;;;;;5068619;28;20762;-69
2022/05/06 07:11:56;;;;;;;9.03;3.50;;;13.80;99.90;;;;;;5068803;28;20260;-69
2022/05/06 07:14:25;;;;;;;5.67;3.40;;;13.90;99.90;;;;;;5068757;28;20219;-69
2022/05/06 07:16:53;;;;;;;5.37;3.73;;;13.90;99.90;;;;;;5068784;28;20219;-69
2022/05/06 07:19:21;;;;;;;5.67;3.67;;;14.00;99.90;;;;;;5068838;28;20642;-70
2022/05/06 07:21:51;;;;;;;5.27;3.53;;;14.00;99.90;;;;;;5061471;28;20218;-68
2022/05/06 07:24:19;;;;;;;4.17;3.57;;;14.10;99.90;;;;;;5065202;28;20233;-68
2022/05/06 07:26:46;;;;;;;3.67;3.37;;;14.10;99.90;;;;;;5068733;28;20207;-69
2022/05/06 07:29:13;;;;;;;5.70;3.90;;;14.10;99.90;;;;;;5068670;28;20553;-68
2022/05/06 07:31:39;;;;;;;5.77;5.27;;;14.20;99.90;;;;;;5068464;28;20199;-69
2022/05/06 07:34:06;;;;;;;6.20;5.30;;;14.20;99.90;;;;;;5068905;28;20264;-69
2022/05/06 07:36:33;;;;;;;8.87;5.87;;;14.30;99.90;;;;;;5068378;28;20204;-69
2022/05/06 07:39:01;;;;;;;6.10;4.70;;;14.30;99.90;;;;;;5061441;28;20208;-68
2022/05/06 07:41:27;;;;;;;5.63;4.93;;;14.40;99.90;;;;;;5050832;28;20979;-69
2022/05/06 07:43:54;;;;;;;7.73;4.97;;;14.40;99.90;;;;;;5068290;28;20234;-68
2022/05/06 07:46:28;;;;;;;5.83;4.40;;;14.50;99.90;;;;;;5068191;28;20256;-69
2022/05/06 07:48:55;;;;;;;6.90;5.43;;;14.50;99.90;;;;;;5068189;28;20202;-68
2022/05/06 07:51:28;;;;;;;5.77;5.13;;;14.60;99.90;;;;;;5064942;28;20216;-69
2022/05/06 07:53:55;;;;;;;5.50;5.00;;;14.60;99.90;;;;;;5048901;28;20200;-69
2022/05/06 07:56:32;;;;;;;7.13;5.10;;;14.60;99.90;;;;;;5067575;28;20839;-68
2022/05/06 07:59:00;;;;;;;7.50;4.83;;;14.70;99.90;;;;;;5068021;28;20199;-69
2022/05/06 08:06:52;;;;;;;6.77;5.57;;;14.90;99.90;;;;;;5047833;28;20199;-68
2022/05/06 08:09:18;;;;;;;5.90;4.90;;;15.00;99.90;;;;;;5047353;28;20215;-69
2022/05/06 08:11:47;;;;;;;6.77;4.57;;;15.10;99.90;;;;;;5047806;28;20208;-68
2022/05/06 08:14:15;;;;;;;8.23;5.30;;;15.10;99.90;;;;;;5047609;28;20290;-69
2022/05/06 08:16:42;;;;;;;6.53;5.53;;;15.20;99.90;;;;;;5047599;28;20218;-69
2022/05/06 08:19:09;;;;;;;9.93;5.70;;;15.20;99.90;;;;;;5047707;28;20209;-68
2022/05/06 08:21:36;;;;;;;13.27;5.33;;;15.30;99.90;;;;;;5057580;28;20210;-69
2022/05/06 08:24:03;;;;;;;8.55;5.90;;;15.30;99.90;;;;;;5066935;28;20211;-68
2022/05/06 08:26:30;;;;;;;9.80;7.03;;;15.40;99.90;;;;;;5067400;28;20207;-68
2022/05/06 08:28:58;;;;;;;8.53;5.80;;;15.50;99.90;;;;;;5067414;28;20212;-69
2022/05/06 08:31:25;;;;;;;5.93;5.10;;;15.60;99.90;;;;;;5067162;28;20257;-68
2022/05/06 08:33:51;;;;;;;13.90;5.40;;;15.70;99.90;;;;;;5067427;28;20199;-69
2022/05/06 08:36:19;;;;;;;6.40;5.80;;;15.80;99.90;;;;;;5067555;28;20215;-68
2022/05/06 08:38:46;;;;;;;8.90;5.53;;;15.80;99.90;;;;;;5067074;28;20618;-69
2022/05/06 08:41:27;;;;;;;6.57;4.67;;;15.80;99.90;;;;;;5067089;28;20321;-68
2022/05/06 08:43:54;;;;;;;5.90;4.60;;;15.80;99.90;;;;;;5067463;28;20207;-69
2022/05/06 08:51:55;;;;;;;5.70;4.97;;;16.00;99.90;;;;;;5066970;28;20616;-68
2022/05/06 08:54:23;;;;;;;8.37;5.37;;;16.10;99.90;;;;;;5066750;28;20735;-69
2022/05/06 08:56:50;;;;;;;7.30;5.00;;;16.10;99.90;;;;;;5067477;28;20211;-68
2022/05/06 08:59:16;;;;;;;5.23;4.83;;;16.20;99.90;;;;;;5067061;28;20684;-68
2022/05/06 09:01:44;;;;;;;5.97;5.17;;;16.20;99.90;;;;;;5067407;28;20263;-68
2022/05/06 09:04:11;;;;;;;6.13;5.50;;;16.20;99.90;;;;;;5067305;28;20310;-68
2022/05/06 09:06:38;;;;;;;6.23;4.40;;;16.30;99.90;;;;;;5067405;28;20204;-68
2022/05/06 09:09:04;;;;;;;18.37;5.87;;;16.40;99.90;;;;;;5067099;28;20212;-68
2022/05/06 09:16:39;;;;;;;4.63;4.23;;;16.60;99.90;;;;;;5066966;28;20191;-68
2022/05/06 09:17:19;;;;;;;4.77;4.37;;;16.70;99.90;;;;;;5066865;28;20207;-68
2022/05/06 09:19:46;;;;;;;5.00;4.10;;;16.80;99.90;;;;;;5067291;28;20191;-68
2022/05/06 09:22:14;;;;;;;5.57;4.87;;;16.90;99.90;;;;;;5057150;28;20212;-69
2022/05/06 09:24:41;;;;;;;4.43;4.03;;;17.00;99.90;;;;;;5046656;28;20231;-68
2022/05/06 09:27:09;;;;;;;4.87;4.40;;;16.90;99.90;;;;;;5047042;28;20216;-68
2022/05/06 09:29:38;;;;;;;8.63;4.10;;;16.90;99.90;;;;;;5046912;28;20208;-68
2022/05/06 09:32:20;;;;;;;6.03;4.30;;;16.90;99.90;;;;;;5058557;28;20254;-68
2022/05/06 09:34:49;;;;;;;3.97;3.33;;;16.80;99.90;;;;;;5066958;28;20265;-69
2022/05/06 09:37:36;;;;;;;6.83;4.20;;;16.70;99.90;;;;;;5067135;28;20261;-68
2022/05/06 09:40:09;;;;;;;7.10;4.43;;;16.70;99.90;;;;;;5056111;28;20274;-68
2022/05/06 09:42:38;;;;;;;5.13;4.40;;;16.80;99.90;;;;;;5059491;28;20573;-68
2022/05/06 09:45:05;;;;;;;5.77;4.00;;;16.90;99.90;;;;;;5069059;28;20285;-70
2022/05/06 09:47:33;;;;;;;4.13;3.57;;;17.00;99.70;;;;;;5070214;28;20657;-69
2022/05/06 09:50:00;;;;;;;3.90;3.47;;;17.20;99.70;;;;;;5070759;28;20207;-69
2022/05/06 09:52:27;;;;;;;5.53;3.27;;;17.30;99.60;;;;;;5058449;28;20215;-69
2022/05/06 09:54:56;;;;;;;4.20;3.03;;;17.50;99.70;;;;;;5050019;28;20216;-68
2022/05/06 09:57:22;;;;;;;6.53;3.93;;;17.70;99.90;;;;;;5050335;28;20579;-69
2022/05/06 09:59:50;;;;;;;4.97;4.10;;;17.70;99.40;;;;;;5050558;28;20219;-68
2022/05/06 10:02:17;;;;;;;3.90;3.50;;;17.40;98.90;;;;;;5050431;28;20208;-68
2022/05/06 10:04:47;;;;;;;6.70;3.80;;;17.40;99.40;;;;;;5049872;28;21130;-69
2022/05/06 10:07:15;;;;;;;6.23;3.50;;;17.40;99.30;;;;;;5050281;28;20218;-68
2022/05/06 10:09:58;;;;;;;10.93;3.97;;;17.40;99.50;;;;;;5049578;28;20675;-69
2022/05/06 10:12:28;;;;;;;5.47;3.47;;;17.50;99.00;;;;;;5054074;28;20570;-69
2022/05/06 10:14:55;;;;;;;3.00;2.80;;;17.60;99.40;;;;;;5068100;28;20207;-69
2022/05/06 10:17:49;;;;;;;6.03;3.10;;;17.80;99.50;;;;;;5069501;28;20735;-69
2022/05/06 10:20:58;;;;;;;5.57;3.87;;;17.80;98.60;;;;;;5070189;28;20223;-68
2022/05/06 10:23:46;;;;;;;7.70;3.80;;;17.80;99.10;;;;;;5058797;28;20604;-68
2022/05/06 10:26:39;;;;;;;7.13;3.80;;;17.80;99.10;;;;;;5069881;28;20220;-69
2022/05/06 10:34:57;;;;;;;3.80;3.50;;;18.00;98.30;;;;;;5069231;28;20207;-69
2022/05/06 10:37:26;;;;;;;4.50;2.80;;;18.00;97.80;;;;;;5068920;28;20284;-69
2022/05/06 10:39:54;;;;;;;4.33;3.93;;;18.00;97.80;;;;;;5069070;28;20240;-69
2022/05/06 10:42:32;;;;;;;6.47;3.50;;;18.20;97.90;;;;;;5068977;28;20270;-68
2022/05/06 10:44:59;;;;;;;4.43;3.50;;;18.30;97.70;;;;;;5049277;28;20748;-69
2022/05/06 10:47:51;;;;;;;12.23;3.50;;;18.30;97.90;;;;;;5049317;28;20211;-68
2022/05/06 10:50:21;;;;;;;6.13;3.37;;;18.30;98.00;;;;;;5049176;28;20722;-68
2022/05/06 10:52:49;;;;;;;4.77;3.30;;;18.40;98.20;;;;;;5049327;28;20212;-68
2022/05/06 10:55:21;;;;;;;5.13;3.47;;;18.30;97.90;;;;;;5048610;28;20204;-68
2022/05/06 10:57:56;;;;;;;4.30;3.70;;;18.30;98.10;;;;;;5049281;28;20307;-69
2022/05/06 11:00:25;;;;;;;3.80;3.50;;;18.20;97.80;;;;;;5048435;28;20196;-69
2022/05/06 11:02:52;;;;;;;3.20;2.90;;;18.20;97.80;;;;;;5048611;28;20540;-69
2022/05/06 11:05:21;;;;;;;6.40;2.60;;;18.20;97.80;;;;;;5048710;28;20231;-68
2022/05/06 11:07:49;;;;;;;3.93;3.00;;;18.30;98.20;;;;;;5048622;28;20315;-69
2022/05/06 11:10:18;;;;;;;3.30;2.50;;;18.40;98.20;;;;;;5053911;28;20208;-69
2022/05/06 11:12:48;;;;;;;3.47;2.63;;;18.30;97.90;;;;;;5048505;28;20594;-69
2022/05/06 11:15:20;;;;;;;2.33;2.13;;;18.40;98.20;;;;;;5048665;28;20617;-68
2022/05/06 11:17:47;;;;;;;5.83;2.40;;;18.50;98.30;;;;;;5048851;28;20238;-69
2022/05/06 11:20:21;;;;;;;11.97;3.40;;;18.60;98.30;;;;;;5048725;28;20216;-68
2022/05/06 11:22:58;;;;;;;4.80;3.40;;;18.60;97.70;;;;;;5063258;28;20685;-68
2022/05/06 11:25:27;;;;;;;4.00;3.00;;;18.60;97.30;;;;;;5068393;28;20215;-69
2022/05/06 11:27:58;;;;;;;3.70;2.93;;;18.60;98.00;;;;;;5068582;28;20320;-68
2022/05/06 11:30:27;;;;;;;7.63;2.43;;;18.50;97.30;;;;;;5068545;28;20188;-69
2022/05/06 11:32:56;;;;;;;6.80;2.00;;;18.60;96.80;;;;;;5068631;28;20212;-69
2022/05/06 11:35:28;;;;;;;3.33;1.90;;;18.70;96.70;;;;;;5068320;28;20238;-68
2022/05/06 11:37:55;;;;;;;2.27;1.70;;;18.70;96.40;;;;;;5068659;28;20392;-69
2022/05/06 11:40:35;;;;;;;2.57;2.37;;;18.80;96.80;;;;;;5067742;28;20235;-68
2022/05/06 11:43:09;;;;;;;2.83;2.47;;;18.80;96.70;;;;;;5051532;28;20269;-68
2022/05/06 11:48:22;;;;;;;4.83;2.27;;;18.80;96.30;;;;;;5048056;28;20571;-68
2022/05/06 11:50:55;;;;;;;5.53;2.90;;;18.80;96.30;;;;;;5048538;28;20269;-69
2022/05/06 11:53:25;;;;;;;14.10;2.87;;;18.70;96.40;;;;;;5067245;28;20203;-69
2022/05/06 11:55:54;;;;;;;4.73;2.37;;;18.70;96.60;;;;;;5068177;28;20206;-69
2022/05/06 11:58:24;;;;;;;3.63;2.40;;;18.70;96.00;;;;;;5067799;28;20203;-69
2022/05/06 12:00:51;;;;;;;2.87;2.43;;;19.00;97.10;;;;;;5068005;28;20245;-69
2022/05/06 12:03:19;;;;;;;4.97;2.30;;;19.20;95.00;;;;;;5067798;28;20210;-69
2022/05/06 12:06:04;;;;;;;5.63;1.97;;;19.30;95.10;;;;;;5065914;28;20227;-69
2022/05/06 12:08:32;;;;;;;2.17;1.87;;;19.30;94.60;;;;;;5067196;28;20474;-69
2022/05/06 12:11:01;;;;;;;3.10;1.87;;;19.60;95.10;;;;;;5067626;28;20721;-69
2022/05/06 12:13:40;;;;;;;4.03;1.80;;;19.90;95.50;;;;;;5067433;28;20612;-69
2022/05/06 12:16:19;;;;;;;2.67;2.07;;;20.20;94.90;;;;;;5067361;28;20607;-69
2022/05/06 12:18:54;;;;;;;9.70;3.17;;;20.30;94.60;;;;;;5067682;28;20191;-69
2022/05/06 12:21:23;;;;;;;4.33;1.70;;;20.30;94.70;;;;;;5067459;28;20238;-68
2022/05/06 12:23:54;;;;;;;1.93;1.73;;;20.20;94.90;;;;;;5067237;28;20207;-69
2022/05/06 12:26:36;;;;;;;1.80;1.70;;;20.00;94.80;;;;;;5067480;28;20300;-69
2022/05/06 12:29:19;;;;;;;2.00;1.70;;;19.80;94.90;;;;;;5067560;28;20204;-68
2022/05/06 12:31:48;;;;;;;2.17;1.83;;;19.70;95.00;;;;;;5067612;28;20290;-68
2022/05/06 12:34:15;;;;;;;2.77;1.90;;;19.60;94.70;;;;;;5067234;28;20221;-69
2022/05/06 12:36:42;;;;;;;1.60;1.50;;;19.50;94.80;;;;;;5067308;28;20203;-68
2022/05/06 12:39:19;;;;;;;1.67;1.57;;;19.40;94.70;;;;;;5067159;28;20208;-68
2022/05/06 12:41:47;;;;;;;1.90;1.80;;;19.30;95.00;;;;;;5067281;28;20213;-69
2022/05/06 12:44:22;;;;;;;3.93;1.93;;;19.20;94.90;;;;;;5067479;28;20212;-69
2022/05/06 12:46:50;;;;;;;1.90;1.80;;;19.10;95.00;;;;;;5067137;28;20230;-69
2022/05/06 12:52:04;;;;;;;2.23;2.03;;;19.00;95.10;;;;;;5067358;28;20353;-68
2022/05/06 12:54:30;;;;;;;3.63;1.60;;;19.00;95.20;;;;;;5067098;28;20218;-68
2022/05/06 12:56:57;;;;;;;2.00;1.90;;;19.00;94.90;;;;;;5067471;28;20211;-69
2022/05/06 12:59:26;;;;;;;2.70;1.80;;;19.00;94.70;;;;;;5067371;28;20211;-68
2022/05/06 13:01:53;;;;;;;6.20;2.30;;;19.00;94.30;;;;;;5056957;28;20207;-69
2022/05/06 13:04:20;;;;;;;2.80;1.70;;;19.00;94.60;;;;;;5067444;28;20231;-69
2022/05/06 13:06:47;;;;;;;4.17;1.87;;;19.00;94.20;;;;;;5066855;28;20230;-69
2022/05/06 13:09:14;;;;;;;7.23;1.93;;;19.10;94.50;;;;;;5062731;28;20204;-69
2022/05/06 13:11:41;;;;;;;11.70;2.10;;;19.10;93.80;;;;;;5051345;28;20211;-69
2022/05/06 13:14:07;;;;;;;1.97;1.50;;;19.20;94.10;;;;;;5065351;28;20215;-69
2022/05/06 13:16:36;;;;;;;2.70;1.60;;;19.20;94.20;;;;;;5064909;28;20195;-68
2022/05/06 13:19:04;;;;;;;2.20;1.70;;;19.20;93.60;;;;;;5067689;28;20212;-69
2022/05/06 13:21:31;;;;;;;1.57;1.47;;;19.30;93.40;;;;;;5059285;28;20278;-68
2022/05/06 13:23:58;;;;;;;3.23;1.33;;;19.40;93.80;;;;;;5054130;28;20261;-69
2022/05/06 13:26:24;;;;;;;2.03;1.23;;;19.50;94.10;;;;;;5069082;28;20780;-69
2022/05/06 13:28:51;;;;;;;3.10;1.20;;;19.60;93.80;;;;;;5069240;28;20207;-71
2022/05/06 13:31:21;;;;;;;4.00;1.50;;;19.60;93.40;;;;;;5068605;28;20205;-69
2022/05/06 13:33:49;;;;;;;2.30;1.37;;;19.70;93.00;;;;;;5068863;28;20545;-69
2022/05/06 13:36:18;;;;;;;2.87;1.20;;;19.80;93.30;;;;;;5068865;28;20265;-68
2022/05/06 13:38:45;;;;;;;1.50;1.40;;;20.10;92.80;;;;;;5068158;28;20288;-68
2022/05/06 13:41:21;;;;;;;1.53;1.43;;;20.30;92.30;;;;;;5067773;28;20936;-68
2022/05/06 13:43:48;;;;;;;5.30;1.50;;;20.30;91.30;;;;;;5067858;28;20665;-68